createdAt,value
2019-01-17T00:00:36.194Z,-21158.28
2019-01-17T00:03:06.462Z,-21163.82
2019-01-17T00:05:36.379Z,-21148.34
2019-01-17T00:08:09.166Z,-21158.85
2019-01-17T00:10:47.889Z,-21153.30
2019-01-17T00:13:17.804Z,-21137.38
2019-01-17T00:15:47.704Z,-21142.79
2019-01-17T00:18:26.345Z,-21158.00
2019-01-17T00:21:02.473Z,-21150.04
2019-01-17T00:23:44.097Z,-21141.37
2019-01-17T00:26:30.444Z,-21157.43
2019-01-17T00:29:00.357Z,-21160.13
2019-01-17T00:31:30.272Z,-21129.27
2019-01-17T00:34:00.181Z,-21139.52
2019-01-17T00:36:36.922Z,-21161.27
2019-01-17T00:39:27.943Z,-21142.22
2019-01-17T00:42:13.819Z,-21124.29
2019-01-17T00:44:49.415Z,-21124.43
2019-01-17T00:47:19.338Z,-21125.00
2019-01-17T00:49:58.240Z,-21138.52
2019-01-17T00:52:30.926Z,-21123.58
2019-01-17T00:55:15.842Z,-21145.06
2019-01-17T00:57:45.769Z,-21148.76
2019-01-17T01:00:26.086Z,-21124.00
2019-01-17T01:03:04.784Z,-21123.30
2019-01-17T01:05:51.011Z,-21127.85
2019-01-17T01:08:26.780Z,-21144.49
2019-01-17T01:11:12.927Z,-21145.06
2019-01-17T01:13:48.927Z,-21157.57
2019-01-17T01:16:35.008Z,-21143.36
2019-01-17T01:19:04.912Z,-21139.09
2019-01-17T01:21:51.342Z,-21146.77
2019-01-17T01:24:33.264Z,-21157.15
2019-01-17T01:27:09.123Z,-21153.16
2019-01-17T01:29:39.020Z,-21135.39
2019-01-17T01:32:17.813Z,-21146.34
2019-01-17T01:34:47.708Z,-21138.95
2019-01-17T01:37:17.641Z,-21135.96
2019-01-17T01:39:50.484Z,-21134.82
2019-01-17T01:42:20.487Z,-21151.32
2019-01-17T01:44:50.392Z,-21137.81
2019-01-17T01:47:29.088Z,-21136.53
2019-01-17T01:50:02.106Z,-21141.93
2019-01-17T01:52:38.156Z,-21133.40
2019-01-17T01:55:06.607Z,-21136.81
2019-01-17T01:57:34.886Z,-21136.67
2019-01-17T02:00:05.071Z,-21137.10
2019-01-17T02:02:33.343Z,-21146.91
2019-01-17T02:05:01.614Z,-21135.53
2019-01-17T02:07:29.874Z,-21141.65
2019-01-17T02:09:58.149Z,-21143.08
2019-01-17T02:12:26.413Z,-21130.69
2019-01-17T02:14:54.684Z,-21144.07
2019-01-17T02:17:23.109Z,-21138.52
2019-01-17T02:19:51.364Z,-21137.81
2019-01-17T02:22:19.641Z,-21133.68
2019-01-17T02:24:47.906Z,-21134.68
2019-01-17T02:27:16.185Z,-21139.66
2019-01-17T02:29:44.446Z,-21144.35
2019-01-17T02:32:12.744Z,-21141.93
2019-01-17T02:34:41.001Z,-21168.09
2019-01-17T02:37:09.295Z,-21155.02
2019-01-17T02:39:37.567Z,-21147.05
2019-01-17T02:42:05.938Z,-21164.96
2019-01-17T02:44:34.297Z,-21164.96
2019-01-17T02:47:02.584Z,-21159.84
2019-01-17T02:49:30.848Z,-21152.89
2019-01-17T02:51:59.122Z,-21161.13
2019-01-17T02:54:27.391Z,-21150.75
2019-01-17T02:56:55.677Z,-21156.29
2019-01-17T02:59:23.951Z,-21163.68
2019-01-17T03:01:52.280Z,-21172.35
2019-01-17T03:04:20.481Z,-21169.08
2019-01-17T03:06:48.846Z,-21159.84
2019-01-17T03:09:17.097Z,-21164.25
2019-01-17T03:11:45.450Z,-21154.16
2019-01-17T03:14:13.742Z,-21174.91
2019-01-17T03:16:42.027Z,-21163.82
2019-01-17T03:19:10.309Z,-21163.96
2019-01-17T03:21:38.603Z,-21151.60
2019-01-17T03:24:06.877Z,-21147.62
2019-01-17T03:26:35.152Z,-21135.67
2019-01-17T03:29:03.509Z,-21164.68
2019-01-17T03:31:31.790Z,-21155.30
2019-01-17T03:34:00.060Z,-21146.91
2019-01-17T03:36:28.399Z,-21170.79
2019-01-17T03:38:56.672Z,-21173.48
2019-01-17T03:41:24.948Z,-21156.86
2019-01-17T03:43:53.466Z,-21155.72
2019-01-17T03:46:21.785Z,-21146.20
2019-01-17T03:48:50.061Z,-21154.73
2019-01-17T03:51:18.338Z,-21155.86
2019-01-17T03:53:46.615Z,-21145.63
2019-01-17T03:56:21.456Z,-21165.25
2019-01-17T03:58:44.952Z,-21159.84
2019-01-17T04:01:13.204Z,-21151.89
2019-01-17T04:03:41.507Z,-21150.47
2019-01-17T04:06:09.775Z,-21139.80
2019-01-17T04:08:38.048Z,-21153.03
2019-01-17T04:11:06.340Z,-21157.71
2019-01-17T04:13:34.608Z,-21148.76
2019-01-17T04:16:02.881Z,-21151.32
2019-01-17T04:18:31.129Z,-21151.89
2019-01-17T04:20:59.399Z,-21146.77
2019-01-17T04:23:27.667Z,-21155.58
2019-01-17T04:25:55.925Z,-21151.46
2019-01-17T04:28:24.243Z,-21147.62
2019-01-17T04:30:52.524Z,-21153.88
2019-01-17T04:33:20.786Z,-21155.86
2019-01-17T04:35:49.068Z,-21153.30
2019-01-17T04:38:17.392Z,-21150.75
2019-01-17T04:40:45.674Z,-21148.34
2019-01-17T04:43:13.943Z,-21148.34
2019-01-17T04:45:42.207Z,-21174.19
2019-01-17T04:48:10.489Z,-21140.23
2019-01-17T04:50:38.765Z,-21154.45
2019-01-17T04:53:07.024Z,-21168.09
2019-01-17T04:55:35.293Z,-21157.71
2019-01-17T04:58:03.554Z,-21159.99
2019-01-17T05:00:31.818Z,-21159.28
2019-01-17T05:03:00.082Z,-21157.01
2019-01-17T05:05:28.388Z,-21161.98
2019-01-17T05:07:56.598Z,-21166.10
2019-01-17T05:10:24.879Z,-21159.14
2019-01-17T05:12:53.140Z,-21162.12
2019-01-17T05:15:21.409Z,-21161.98
2019-01-17T05:17:49.703Z,-21168.65
2019-01-17T05:20:18.101Z,-21171.64
2019-01-17T05:22:46.431Z,-21158.85
2019-01-17T05:25:14.776Z,-21159.70
2019-01-17T05:27:43.054Z,-21170.21
2019-01-17T05:30:16.715Z,-21160.56
2019-01-17T05:32:45.041Z,-21167.52
2019-01-17T05:35:13.865Z,-21223.15
2019-01-17T05:37:42.198Z,-21198.47
2019-01-17T05:40:13.916Z,-21199.61
2019-01-17T05:42:42.134Z,-21203.02
2019-01-17T05:45:11.164Z,-21191.95
2019-01-17T05:47:39.431Z,-21195.77
2019-01-17T05:50:13.059Z,-21168.65
2019-01-17T05:52:41.399Z,-21183.71
2019-01-17T05:55:09.784Z,-21185.41
2019-01-17T05:57:38.059Z,-21175.05
2019-01-17T06:00:15.021Z,-21167.80
2019-01-17T06:02:43.295Z,-21162.54
2019-01-17T06:05:11.998Z,-21165.39
2019-01-17T06:07:40.253Z,-21154.30
2019-01-17T06:10:11.058Z,-21160.27
2019-01-17T06:12:39.414Z,-21155.58
2019-01-17T06:15:13.230Z,-21149.18
2019-01-17T06:17:41.513Z,-21159.28
2019-01-17T06:20:13.156Z,-21159.99
2019-01-17T06:22:41.421Z,-21159.14
2019-01-17T06:25:09.753Z,-21193.08
2019-01-17T06:27:38.040Z,-21350.08
2019-01-17T06:30:09.517Z,-21230.09
2019-01-17T06:32:37.896Z,-21200.18
2019-01-17T06:35:07.862Z,-21259.97
2019-01-17T06:37:36.214Z,-21243.83
2019-01-17T06:40:10.228Z,-21261.95
2019-01-17T06:42:38.488Z,-21310.01
2019-01-17T06:45:07.394Z,-21260.96
2019-01-17T06:47:35.670Z,-21307.89
2019-01-17T06:50:06.244Z,-21312.41
2019-01-17T06:52:34.556Z,-21294.76
2019-01-17T06:55:02.844Z,-21269.73
2019-01-17T06:57:31.107Z,-21250.91
2019-01-17T06:59:59.376Z,-21309.45
2019-01-17T07:02:27.672Z,-21204.00
2019-01-17T07:04:55.942Z,-21213.36
2019-01-17T07:07:24.204Z,-21241.43
2019-01-17T07:09:52.492Z,-21240.71
2019-01-17T07:12:20.769Z,-21240.86
2019-01-17T07:14:49.034Z,-21231.51
2019-01-17T07:17:17.322Z,-21252.75
2019-01-17T07:19:45.579Z,-21255.87
2019-01-17T07:22:13.864Z,-21230.23
2019-01-17T07:24:42.190Z,-21231.37
2019-01-17T07:27:10.464Z,-21234.48
2019-01-17T07:29:38.735Z,-21222.02
2019-01-17T07:32:06.998Z,-21215.63
2019-01-17T07:34:35.282Z,-21225.84
2019-01-17T07:37:03.553Z,-21236.75
2019-01-17T07:39:31.830Z,-21219.18
2019-01-17T07:42:00.099Z,-21216.91
2019-01-17T07:44:28.451Z,-21220.74
2019-01-17T07:46:56.716Z,-21223.15
2019-01-17T07:49:24.963Z,-21224.57
2019-01-17T07:51:53.242Z,-21249.21
2019-01-17T07:54:21.501Z,-21208.83
2019-01-17T07:56:49.784Z,-21251.90
2019-01-17T07:59:18.050Z,-21229.95
2019-01-17T08:01:46.385Z,-21208.12
2019-01-17T08:04:14.666Z,-21222.44
2019-01-17T08:06:42.929Z,-21226.41
2019-01-17T08:09:11.283Z,-21197.48
2019-01-17T08:11:48.806Z,-21212.37
2019-01-17T08:14:26.181Z,-21217.76
2019-01-17T08:16:54.616Z,-21211.09
2019-01-17T08:19:22.896Z,-21231.08
2019-01-17T08:21:51.178Z,-21193.51
2019-01-17T08:24:19.455Z,-21225.56
2019-01-17T08:26:47.720Z,-21207.27
2019-01-17T08:29:15.996Z,-21217.90
2019-01-17T08:31:44.270Z,-21217.90
2019-01-17T08:34:12.558Z,-21228.82
2019-01-17T08:36:40.877Z,-21214.21
2019-01-17T08:39:09.170Z,-21231.93
2019-01-17T08:41:37.422Z,-21232.50
2019-01-17T08:44:05.765Z,-21221.16
2019-01-17T08:46:34.030Z,-21219.18
2019-01-17T08:49:02.302Z,-21215.20
2019-01-17T08:51:30.566Z,-21227.12
2019-01-17T08:53:58.842Z,-21241.00
2019-01-17T08:56:27.135Z,-21210.25
2019-01-17T08:58:55.378Z,-21207.13
2019-01-17T09:01:23.647Z,-21204.86
2019-01-17T09:03:51.920Z,-21216.34
2019-01-17T09:06:20.270Z,-21222.72
2019-01-17T09:08:48.527Z,-21228.39
2019-01-17T09:11:16.866Z,-21222.02
2019-01-17T09:13:45.142Z,-21220.74
2019-01-17T09:16:13.400Z,-21237.89
2019-01-17T09:18:41.677Z,-21245.96
2019-01-17T09:21:09.928Z,-21221.45
2019-01-17T09:23:38.203Z,-21166.38
2019-01-17T09:26:07.673Z,-21172.49
2019-01-17T09:28:36.317Z,-21181.01
2019-01-17T09:31:04.646Z,-21153.45
2019-01-17T09:33:33.685Z,-21161.84
2019-01-17T09:36:01.969Z,-21145.63
2019-01-17T09:38:30.298Z,-21165.53
2019-01-17T09:40:58.583Z,-21175.75
2019-01-17T09:43:26.838Z,-21183.29
2019-01-17T09:45:55.095Z,-21165.68
2019-01-17T09:48:23.376Z,-21166.67
2019-01-17T09:50:51.647Z,-21170.50
2019-01-17T09:53:20.018Z,-21167.52
2019-01-17T09:55:48.278Z,-21168.23
2019-01-17T09:58:16.548Z,-21162.26
2019-01-17T10:00:44.812Z,-21187.69
2019-01-17T10:03:13.084Z,-21197.62
2019-01-17T10:05:41.330Z,-21203.58
2019-01-17T10:08:09.604Z,-21177.88
2019-01-17T10:10:37.903Z,-21179.30
2019-01-17T10:13:06.241Z,-21186.70
2019-01-17T10:15:40.662Z,-21179.45
2019-01-17T10:18:23.340Z,-21169.79
2019-01-17T10:21:28.582Z,-21182.72
2019-01-17T10:24:11.518Z,-21159.84
2019-01-17T10:26:48.811Z,-21164.82
2019-01-17T10:29:32.245Z,-21156.15
2019-01-17T10:32:06.487Z,-21170.93
2019-01-17T10:34:52.984Z,-21158.28
2019-01-17T10:37:42.651Z,-21179.45
2019-01-17T10:40:23.243Z,-21175.47
2019-01-17T10:42:54.681Z,-21172.20
2019-01-17T10:45:29.310Z,-21164.68
2019-01-17T10:48:09.773Z,-21195.07
2019-01-17T10:50:57.808Z,-21222.58
2019-01-17T10:53:50.209Z,-21206.84
2019-01-17T10:56:44.569Z,-21199.32
2019-01-17T10:59:25.053Z,-21185.41
2019-01-17T11:02:05.318Z,-21192.80
2019-01-17T11:04:57.727Z,-21181.59
2019-01-17T11:07:40.445Z,-21190.39
2019-01-17T11:10:23.524Z,-21190.39
2019-01-17T11:13:17.235Z,-21181.44
2019-01-17T11:16:08.013Z,-21205.14
2019-01-17T11:18:58.822Z,-21213.79
2019-01-17T11:21:53.878Z,-21193.22
2019-01-17T11:24:40.486Z,-21187.83
2019-01-17T11:27:20.553Z,-21201.73
2019-01-17T11:30:06.919Z,-21182.15
2019-01-17T11:32:44.168Z,-21180.87
2019-01-17T11:35:36.767Z,-21172.63
2019-01-17T11:38:20.239Z,-21183.86
2019-01-17T11:40:51.678Z,-21184.28
2019-01-17T11:43:35.129Z,-21173.06
2019-01-17T11:46:24.656Z,-21176.18
2019-01-17T11:48:58.866Z,-21178.60
2019-01-17T11:51:30.304Z,-21187.40
2019-01-17T11:54:07.714Z,-21182.01
2019-01-17T11:56:41.875Z,-21180.30
2019-01-17T11:59:22.308Z,-21197.20
2019-01-17T12:02:03.429Z,-21161.55
2019-01-17T12:04:31.047Z,-21190.39
2019-01-17T12:07:02.733Z,-21185.84
2019-01-17T12:09:31.008Z,-21174.62
2019-01-17T12:11:59.276Z,-21159.14
2019-01-17T12:14:27.576Z,-21172.35
2019-01-17T12:16:55.830Z,-21179.16
2019-01-17T12:19:24.117Z,-21191.95
2019-01-17T12:21:52.458Z,-21187.69
2019-01-17T12:24:20.828Z,-21183.71
2019-01-17T12:26:49.105Z,-21184.14
2019-01-17T12:29:17.402Z,-21180.30
2019-01-17T12:31:45.675Z,-21170.64
2019-01-17T12:34:13.941Z,-21173.91
2019-01-17T12:36:42.229Z,-21177.74
2019-01-17T12:39:13.041Z,-21175.19
2019-01-17T12:41:41.340Z,-21180.30
2019-01-17T12:44:09.633Z,-21174.62
2019-01-17T12:46:37.921Z,-21181.15
2019-01-17T12:49:06.249Z,-21183.43
2019-01-17T12:51:34.514Z,-21172.49
2019-01-17T12:54:02.810Z,-21187.69
2019-01-17T12:56:31.085Z,-21186.13
2019-01-17T12:58:59.389Z,-21179.30
2019-01-17T13:01:27.733Z,-21173.20
2019-01-17T13:03:56.009Z,-21207.41
2019-01-17T13:06:24.251Z,-21179.59
2019-01-17T13:08:52.593Z,-21192.65
2019-01-17T13:11:20.880Z,-21169.23
2019-01-17T13:13:49.171Z,-21173.63
2019-01-17T13:16:17.473Z,-21185.13
2019-01-17T13:18:45.745Z,-21181.15
2019-01-17T13:21:14.186Z,-21189.39
2019-01-17T13:23:42.475Z,-21225.13
2019-01-17T13:26:10.876Z,-21198.61
2019-01-17T13:28:39.133Z,-21177.32
2019-01-17T13:31:07.470Z,-21182.01
2019-01-17T13:33:35.751Z,-21193.22
2019-01-17T13:36:05.988Z,-21188.40
2019-01-17T13:38:34.254Z,-21241.99
2019-01-17T13:41:02.556Z,-21272.00
2019-01-17T13:43:30.847Z,-21296.60
2019-01-17T13:45:59.134Z,-21278.64
2019-01-17T13:48:27.412Z,-21271.57
2019-01-17T13:50:55.705Z,-21310.86
2019-01-17T13:53:24.060Z,-21287.98
2019-01-17T13:55:52.340Z,-21279.77
2019-01-17T13:58:20.618Z,-21290.95
2019-01-17T14:00:48.956Z,-21250.06
2019-01-17T14:03:17.257Z,-21229.95
2019-01-17T14:05:45.601Z,-21249.92
2019-01-17T14:08:13.895Z,-21220.17
2019-01-17T14:10:42.158Z,-21224.71
2019-01-17T14:13:10.427Z,-21213.36
2019-01-17T14:15:39.053Z,-21235.05
2019-01-17T14:18:07.331Z,-21227.40
2019-01-17T14:20:35.687Z,-21198.89
2019-01-17T14:23:04.046Z,-21218.47
2019-01-17T14:25:32.371Z,-21231.37
2019-01-17T14:28:00.638Z,-21205.14
2019-01-17T14:30:31.740Z,-21202.44
2019-01-17T14:33:00.042Z,-21215.35
2019-01-17T14:35:28.316Z,-21203.29
2019-01-17T14:37:56.609Z,-21206.98
2019-01-17T14:40:24.964Z,-21208.69
2019-01-17T14:42:53.295Z,-21215.06
2019-01-17T14:45:22.768Z,-21192.23
2019-01-17T14:47:51.212Z,-21184.42
2019-01-17T14:50:22.109Z,-21197.20
2019-01-17T14:52:50.597Z,-21205.99
2019-01-17T14:55:18.915Z,-21204.15
2019-01-17T14:57:47.269Z,-21205.71
2019-01-17T15:00:18.350Z,-21199.89
2019-01-17T15:02:46.624Z,-21199.47
2019-01-17T15:05:15.327Z,-21205.85
2019-01-17T15:07:43.655Z,-21181.15
2019-01-17T15:10:23.654Z,-21185.27
2019-01-17T15:12:52.083Z,-21179.02
2019-01-17T15:15:20.453Z,-21173.20
2019-01-17T15:17:48.720Z,-21194.93
2019-01-17T15:20:19.061Z,-21178.17
2019-01-17T15:22:48.953Z,-21181.44
2019-01-17T15:25:17.238Z,-21184.56
2019-01-17T15:27:45.527Z,-21194.78
2019-01-17T15:30:16.735Z,-21182.29
2019-01-17T15:32:45.008Z,-21194.50
2019-01-17T15:35:13.368Z,-21165.68
2019-01-17T15:37:41.848Z,-21163.68
2019-01-17T15:40:16.186Z,-21167.66
2019-01-17T15:42:44.526Z,-21129.13
2019-01-17T15:45:12.801Z,-21129.41
2019-01-17T15:47:41.099Z,-21141.37
2019-01-17T15:50:19.440Z,-21142.65
2019-01-17T15:52:47.792Z,-21136.38
2019-01-17T15:55:17.099Z,-21145.06
2019-01-17T15:57:45.549Z,-21135.11
2019-01-17T16:00:16.723Z,-21263.93
2019-01-17T16:02:45.078Z,-21235.76
2019-01-17T16:05:13.369Z,-21200.60
2019-01-17T16:07:41.653Z,-21196.63
2019-01-17T16:10:13.103Z,-21194.07
2019-01-17T16:12:41.387Z,-21171.36
2019-01-17T16:15:14.956Z,-21163.40
2019-01-17T16:17:43.236Z,-21181.15
2019-01-17T16:20:33.795Z,-21149.04
2019-01-17T16:23:02.088Z,-21160.27
2019-01-17T16:25:30.416Z,-21160.98
2019-01-17T16:27:58.692Z,-21161.27
2019-01-17T16:30:29.020Z,-21163.82
2019-01-17T16:32:57.322Z,-21163.96
2019-01-17T16:35:25.657Z,-21178.88
2019-01-17T16:37:54.031Z,-21168.37
2019-01-17T16:40:22.396Z,-21171.36
2019-01-17T16:42:50.691Z,-21186.41
2019-01-17T16:45:21.749Z,-21168.37
2019-01-17T16:47:49.978Z,-21161.84
2019-01-17T16:50:20.521Z,-21175.75
2019-01-17T16:52:52.990Z,-21165.68
2019-01-17T16:55:32.686Z,-21152.46
2019-01-17T16:58:05.175Z,-21166.38
2019-01-17T17:00:37.620Z,-21154.16
2019-01-17T17:03:05.918Z,-21148.90
2019-01-17T17:05:36.990Z,-21154.59
2019-01-17T17:08:05.515Z,-21158.42
2019-01-17T17:10:33.785Z,-21148.34
2019-01-17T17:13:02.096Z,-21162.40
2019-01-17T17:15:30.398Z,-21160.98
2019-01-17T17:17:58.649Z,-21150.89
2019-01-17T17:20:31.768Z,-21152.32
2019-01-17T17:23:04.802Z,-21157.01
2019-01-17T17:25:33.099Z,-21165.96
2019-01-17T17:28:01.381Z,-21145.78
2019-01-17T17:30:29.657Z,-21148.19
2019-01-17T17:32:57.938Z,-21139.94
2019-01-17T17:35:26.206Z,-21134.68
2019-01-17T17:37:54.567Z,-21115.61
2019-01-17T17:40:28.123Z,-21102.79
2019-01-17T17:42:56.427Z,-21103.79
2019-01-17T17:45:24.818Z,-21107.35
2019-01-17T17:47:53.284Z,-21129.98
2019-01-17T17:50:22.540Z,-21115.90
2019-01-17T17:52:50.816Z,-21117.46
2019-01-17T17:55:19.966Z,-21104.79
2019-01-17T17:57:48.253Z,-21097.95
2019-01-17T18:00:41.354Z,-21086.41
2019-01-17T18:03:09.651Z,-21093.11
2019-01-17T18:05:37.984Z,-21106.64
2019-01-17T18:08:06.342Z,-21171.50
2019-01-17T18:10:35.591Z,-21129.70
2019-01-17T18:13:03.791Z,-21124.72
2019-01-17T18:15:32.064Z,-21141.23
2019-01-17T18:18:00.342Z,-21149.76
2019-01-17T18:20:28.704Z,-21141.93
2019-01-17T18:22:57.125Z,-21135.96
2019-01-17T18:25:25.424Z,-21137.96
2019-01-17T18:27:53.849Z,-21135.96
2019-01-17T18:30:24.928Z,-21148.05
2019-01-17T18:32:53.298Z,-21169.79
2019-01-17T18:35:21.639Z,-21147.62
2019-01-17T18:37:50.112Z,-21139.52
2019-01-17T18:40:19.516Z,-21158.71
2019-01-17T18:42:47.864Z,-21150.61
2019-01-17T18:45:18.716Z,-21160.84
2019-01-17T18:47:47.018Z,-21154.45
2019-01-17T18:50:20.585Z,-21153.45
2019-01-17T18:52:48.966Z,-21166.10
2019-01-17T18:55:17.565Z,-21157.15
2019-01-17T18:57:46.019Z,-21156.15
2019-01-17T19:00:21.476Z,-21123.44
2019-01-17T19:02:49.805Z,-21128.13
2019-01-17T19:05:18.151Z,-21131.69
2019-01-17T19:07:46.438Z,-21133.97
2019-01-17T19:10:16.081Z,-21123.44
2019-01-17T19:12:44.329Z,-21118.60
2019-01-17T19:15:15.770Z,-21122.59
2019-01-17T19:17:44.056Z,-21110.91
2019-01-17T19:20:14.766Z,-21123.58
2019-01-17T19:22:43.067Z,-21121.30
2019-01-17T19:25:11.437Z,-21128.13
2019-01-17T19:27:39.702Z,-21122.30
2019-01-17T19:30:18.671Z,-21129.98
2019-01-17T19:32:54.808Z,-21127.71
2019-01-17T19:35:23.387Z,-21110.77
2019-01-17T19:37:51.796Z,-21102.93
2019-01-17T19:40:22.766Z,-21115.04
2019-01-17T19:42:51.029Z,-21126.99
2019-01-17T19:45:19.365Z,-21109.91
2019-01-17T19:48:03.541Z,-21111.34
2019-01-17T19:50:38.022Z,-21117.18
2019-01-17T19:53:06.389Z,-21101.23
2019-01-17T19:55:34.672Z,-21133.68
2019-01-17T19:58:03.018Z,-21139.80
2019-01-17T20:00:31.379Z,-21125.43
2019-01-17T20:02:59.746Z,-21124.43
2019-01-17T20:05:30.271Z,-21122.59
2019-01-17T20:07:58.679Z,-21117.46
2019-01-17T20:10:31.878Z,-21129.70
2019-01-17T20:13:00.225Z,-21141.79
2019-01-17T20:15:28.582Z,-21139.52
2019-01-17T20:17:56.939Z,-21141.79
2019-01-17T20:20:31.679Z,-21148.19
2019-01-17T20:22:55.298Z,-21123.72
2019-01-17T20:25:23.609Z,-21160.84
2019-01-17T20:27:51.953Z,-21125.43
2019-01-17T20:30:22.668Z,-21136.96
2019-01-17T20:32:51.241Z,-21134.96
2019-01-17T20:35:19.589Z,-21105.22
2019-01-17T20:37:48.589Z,-21117.88
2019-01-17T20:40:19.230Z,-21117.74
2019-01-17T20:42:47.585Z,-21139.66
2019-01-17T20:45:16.212Z,-21117.74
2019-01-17T20:47:44.622Z,-21121.44
2019-01-17T20:50:19.229Z,-21156.58
2019-01-17T20:52:47.526Z,-21136.10
2019-01-17T20:55:15.821Z,-21156.01
2019-01-17T20:57:45.643Z,-21134.68
2019-01-17T21:00:23.084Z,-21134.39
2019-01-17T21:02:51.494Z,-21133.25
2019-01-17T21:05:20.221Z,-21105.79
2019-01-17T21:07:48.525Z,-21112.48
2019-01-17T21:10:18.122Z,-21111.62
2019-01-17T21:12:46.401Z,-21098.37
2019-01-17T21:15:15.338Z,-21091.83
2019-01-17T21:17:43.666Z,-21109.63
2019-01-17T21:20:13.175Z,-21090.40
2019-01-17T21:22:41.549Z,-21104.22
2019-01-17T21:25:15.581Z,-21132.26
2019-01-17T21:27:43.958Z,-21112.48
2019-01-17T21:30:15.172Z,-21095.24
2019-01-17T21:32:43.487Z,-21095.67
2019-01-17T21:35:12.310Z,-21101.80
2019-01-17T21:37:40.589Z,-21114.32
2019-01-17T21:40:14.765Z,-21112.62
2019-01-17T21:42:43.060Z,-21111.48
2019-01-17T21:45:13.861Z,-21099.52
2019-01-17T21:47:42.125Z,-21086.70
2019-01-17T21:50:13.392Z,-21099.80
2019-01-17T21:52:41.682Z,-21094.96
2019-01-17T21:55:10.505Z,-21100.37
2019-01-17T21:57:38.795Z,-21103.22
2019-01-17T22:00:10.263Z,-21104.08
2019-01-17T22:02:38.557Z,-21104.93
2019-01-17T22:05:07.493Z,-21105.22
2019-01-17T22:07:35.782Z,-21092.39
2019-01-17T22:10:07.214Z,-21095.39
2019-01-17T22:12:35.495Z,-21112.62
2019-01-17T22:15:05.592Z,-21116.61
2019-01-17T22:17:33.913Z,-21107.21
2019-01-17T22:20:02.189Z,-21103.08
2019-01-17T22:22:30.456Z,-21110.63
2019-01-17T22:24:58.744Z,-21157.15
2019-01-17T22:27:27.002Z,-21126.57
2019-01-17T22:29:55.336Z,-21146.34
2019-01-17T22:32:25.652Z,-21110.20
2019-01-17T22:34:53.975Z,-21109.91
2019-01-17T22:37:22.618Z,-21111.34
2019-01-17T22:39:51.230Z,-21096.24
2019-01-17T22:42:19.573Z,-21106.36
2019-01-17T22:44:48.274Z,-21089.83
2019-01-17T22:47:16.544Z,-21090.68
2019-01-17T22:49:44.980Z,-21085.27
2019-01-17T22:52:13.263Z,-21092.68
2019-01-17T22:54:41.529Z,-21128.70
2019-01-17T22:57:09.795Z,-21138.66
2019-01-17T22:59:38.160Z,-21151.04
2019-01-17T23:02:06.466Z,-21122.44
2019-01-17T23:04:34.769Z,-21114.32
2019-01-17T23:07:03.045Z,-21111.34
2019-01-17T23:09:31.319Z,-21117.60
2019-01-17T23:11:59.658Z,-21111.76
2019-01-17T23:14:27.912Z,-21121.02
2019-01-17T23:16:56.196Z,-21120.59
2019-01-17T23:19:24.455Z,-21128.70
2019-01-17T23:21:52.719Z,-21120.30
2019-01-17T23:24:21.011Z,-21120.59
2019-01-17T23:26:49.284Z,-21127.85
2019-01-17T23:29:17.579Z,-21120.16
2019-01-17T23:31:45.841Z,-21122.01
2019-01-17T23:34:14.119Z,-21108.21
2019-01-17T23:36:42.361Z,-21111.48
2019-01-17T23:39:11.865Z,-21102.37
2019-01-17T23:41:40.143Z,-21095.53
2019-01-17T23:44:08.432Z,-21113.19
2019-01-17T23:46:36.675Z,-21098.09
2019-01-17T23:49:05.041Z,-21125.43
2019-01-17T23:51:33.391Z,-21112.34
2019-01-17T23:54:01.660Z,-21104.36
2019-01-17T23:56:29.934Z,-21120.16
2019-01-17T23:58:58.198Z,-21092.54
